Time;durP1;ratioP1;P1;durP2;ratioP2;P2;SDS_P1;SDS_P2;PMS_P1;PMS_P2;Temp;Humidity;BMP_temperature;BMP_pressure;BME280_temperature;BME280_humidity;BME280_pressure;Samples;Min_cycle;Max_cycle;Signal;HPM_P1;HPM_P2
2022/07/08 00:02:05;;;;;;;3.20;2.20;;;;;;;;;;7379058;19;20264;-77
2022/07/08 00:04:30;;;;;;;2.77;1.60;;;;;;;;;;7367075;19;20143;-76
2022/07/08 00:06:56;;;;;;;1.93;1.80;;;;;;;;;;7362161;19;20125;-75
2022/07/08 00:09:21;;;;;;;2.40;1.93;;;;;;;;;;7374501;19;20150;-77
2022/07/08 00:11:47;;;;;;;2.37;1.80;;;;;;;;;;7372279;19;20251;-77
2022/07/08 00:14:12;;;;;;;2.00;1.90;;;;;;;;;;7363223;19;20140;-76
2022/07/08 00:16:43;;;;;;;1.77;1.67;;;;;;;;;;7362584;19;20145;-76
2022/07/08 00:19:12;;;;;;;2.23;1.70;;;;;;;;;;7367016;19;20166;-76
2022/07/08 00:21:38;;;;;;;4.10;2.60;;;;;;;;;;7367819;19;20178;-76
2022/07/08 00:24:04;;;;;;;2.23;2.03;;;;;;;;;;7366262;19;20211;-76
2022/07/08 00:26:30;;;;;;;3.13;1.50;;;;;;;;;;7371941;19;20149;-76
2022/07/08 00:28:55;;;;;;;2.90;1.90;;;;;;;;;;7373596;19;20649;-78
2022/07/08 00:31:20;;;;;;;2.63;1.60;;;;;;;;;;7363059;19;20670;-76
2022/07/08 00:33:45;;;;;;;2.37;1.73;;;;;;;;;;7359960;19;20818;-76
2022/07/08 00:36:11;;;;;;;3.17;1.83;;;;;;;;;;7376207;19;20136;-75
2022/07/08 00:38:36;;;;;;;1.80;1.70;;;;;;;;;;7379072;19;20626;-76
2022/07/08 00:41:01;;;;;;;2.00;1.90;;;;;;;;;;7374169;19;20622;-76
2022/07/08 00:43:47;;;;;;;2.33;2.13;;;;;;;;;;7366370;19;20145;-76
2022/07/08 00:46:14;;;;;;;3.07;2.03;;;;;;;;;;7377566;19;20251;-76
2022/07/08 00:48:40;;;;;;;1.93;1.83;;;;;;;;;;7385783;19;20133;-76
2022/07/08 00:51:08;;;;;;;2.00;1.80;;;;;;;;;;7379941;19;20153;-77
2022/07/08 00:53:34;;;;;;;3.77;2.10;;;;;;;;;;7380475;19;20484;-76
2022/07/08 00:56:00;;;;;;;2.17;1.97;;;;;;;;;;7379135;19;20718;-76
2022/07/08 00:58:26;;;;;;;2.20;1.90;;;;;;;;;;7379800;19;20125;-76
2022/07/08 01:00:54;;;;;;;2.03;1.90;;;;;;;;;;7378104;19;20250;-76
2022/07/08 01:03:20;;;;;;;3.77;2.30;;;;;;;;;;7382094;19;20516;-76
2022/07/08 01:05:46;;;;;;;2.73;2.33;;;;;;;;;;7382635;19;20586;-77
2022/07/08 01:08:11;;;;;;;1.90;1.80;;;;;;;;;;7367363;19;20540;-75
2022/07/08 01:10:37;;;;;;;2.00;1.80;;;;;;;;;;7385312;19;20184;-76
2022/07/08 01:13:02;;;;;;;2.30;1.80;;;;;;;;;;7382933;19;20141;-76
2022/07/08 01:15:28;;;;;;;6.70;2.37;;;;;;;;;;7370809;19;20589;-76
2022/07/08 01:17:54;;;;;;;2.67;2.47;;;;;;;;;;7386514;19;20671;-76
2022/07/08 01:20:19;;;;;;;2.70;1.87;;;;;;;;;;7387838;19;20177;-76
2022/07/08 01:22:44;;;;;;;2.40;2.20;;;;;;;;;;7389807;19;20514;-76
2022/07/08 01:25:10;;;;;;;2.30;1.97;;;;;;;;;;7388416;19;20136;-77
2022/07/08 01:27:35;;;;;;;2.60;2.40;;;;;;;;;;7388101;19;20151;-76
2022/07/08 01:30:02;;;;;;;2.90;2.60;;;;;;;;;;7382464;19;20144;-75
2022/07/08 01:32:38;;;;;;;2.27;2.00;;;;;;;;;;7385606;19;20216;-76
2022/07/08 01:35:04;;;;;;;2.03;1.93;;;;;;;;;;7387930;19;20133;-77
2022/07/08 01:37:29;;;;;;;3.17;2.30;;;;;;;;;;7387048;19;20654;-76
2022/07/08 01:39:55;;;;;;;1.90;1.77;;;;;;;;;;7387851;19;20157;-76
2022/07/08 01:42:21;;;;;;;2.67;2.07;;;;;;;;;;7386039;19;20171;-76
2022/07/08 01:44:46;;;;;;;2.20;2.00;;;;;;;;;;7386680;19;20694;-77
2022/07/08 01:47:11;;;;;;;2.40;2.20;;;;;;;;;;7378660;19;20208;-76
2022/07/08 01:49:37;;;;;;;2.40;2.10;;;;;;;;;;7385011;19;20163;-76
2022/07/08 01:52:04;;;;;;;2.50;1.90;;;;;;;;;;7383575;19;20523;-76
2022/07/08 01:54:30;;;;;;;2.27;2.07;;;;;;;;;;7390015;19;20133;-76
2022/07/08 01:57:13;;;;;;;3.20;2.40;;;;;;;;;;7387163;19;20135;-76
2022/07/08 01:59:39;;;;;;;2.17;2.00;;;;;;;;;;7389037;19;20169;-76
2022/07/08 02:02:04;;;;;;;2.10;2.00;;;;;;;;;;7384330;19;20184;-77
2022/07/08 02:04:30;;;;;;;2.63;2.00;;;;;;;;;;7389390;19;20195;-76
2022/07/08 02:06:55;;;;;;;3.57;2.33;;;;;;;;;;7388901;19;20188;-76
2022/07/08 02:09:20;;;;;;;2.97;2.40;;;;;;;;;;7389411;19;20599;-77
2022/07/08 02:14:30;;;;;;;2.00;1.90;;;;;;;;;;7390586;19;20154;-76
2022/07/08 02:16:55;;;;;;;3.07;2.53;;;;;;;;;;7384955;19;20149;-77
2022/07/08 02:19:20;;;;;;;3.20;2.30;;;;;;;;;;7389515;19;20180;-76
2022/07/08 02:21:46;;;;;;;2.53;2.23;;;;;;;;;;7385533;19;20208;-78
2022/07/08 02:24:11;;;;;;;2.60;2.40;;;;;;;;;;7380831;19;20209;-77
2022/07/08 02:26:36;;;;;;;5.60;2.53;;;;;;;;;;7382578;19;20177;-78
2022/07/08 02:29:02;;;;;;;3.90;2.40;;;;;;;;;;7376150;19;20133;-78
2022/07/08 02:31:27;;;;;;;3.37;2.27;;;;;;;;;;7376839;19;20156;-77
2022/07/08 02:33:52;;;;;;;2.70;2.50;;;;;;;;;;7382091;19;20603;-78
2022/07/08 02:36:17;;;;;;;3.13;2.40;;;;;;;;;;7379813;19;20193;-77
2022/07/08 02:38:43;;;;;;;2.30;2.20;;;;;;;;;;7381412;19;20121;-77
2022/07/08 02:41:08;;;;;;;2.50;2.30;;;;;;;;;;7380360;19;20228;-78
2022/07/08 02:43:33;;;;;;;2.77;2.10;;;;;;;;;;7378530;19;20518;-78
2022/07/08 02:45:59;;;;;;;2.83;1.90;;;;;;;;;;7371512;19;20145;-75
2022/07/08 02:48:24;;;;;;;2.40;2.10;;;;;;;;;;7374236;19;20145;-75
2022/07/08 02:50:49;;;;;;;2.13;2.00;;;;;;;;;;7377531;19;20177;-78
2022/07/08 02:53:15;;;;;;;3.20;2.27;;;;;;;;;;7374514;19;21302;-76
2022/07/08 02:55:40;;;;;;;6.03;2.63;;;;;;;;;;7384421;19;20144;-76
2022/07/08 02:58:05;;;;;;;2.40;2.20;;;;;;;;;;7379060;19;20741;-76
2022/07/08 03:00:30;;;;;;;3.03;2.33;;;;;;;;;;7378001;19;20265;-76
2022/07/08 03:02:56;;;;;;;2.37;2.17;;;;;;;;;;7377168;19;20137;-77
2022/07/08 03:05:21;;;;;;;2.60;2.20;;;;;;;;;;7382915;19;20641;-79
2022/07/08 03:07:47;;;;;;;2.03;1.87;;;;;;;;;;7381437;19;20133;-77
2022/07/08 03:10:12;;;;;;;2.87;2.10;;;;;;;;;;7374385;19;20590;-77
2022/07/08 03:12:37;;;;;;;2.53;2.33;;;;;;;;;;7382425;19;20133;-77
2022/07/08 03:15:03;;;;;;;2.53;2.03;;;;;;;;;;7377474;19;20137;-76
2022/07/08 03:17:28;;;;;;;3.27;2.03;;;;;;;;;;7379674;19;20129;-77
2022/07/08 03:19:54;;;;;;;2.23;2.03;;;;;;;;;;7382239;19;20155;-79
2022/07/08 03:22:19;;;;;;;2.30;2.10;;;;;;;;;;7383530;19;20555;-77
2022/07/08 03:24:44;;;;;;;2.37;1.83;;;;;;;;;;7386055;19;20167;-77
2022/07/08 03:27:09;;;;;;;2.47;2.27;;;;;;;;;;7391078;19;20125;-76
2022/07/08 03:29:35;;;;;;;5.33;2.23;;;;;;;;;;7381480;19;20129;-78
2022/07/08 03:32:00;;;;;;;3.03;2.10;;;;;;;;;;7375696;19;20145;-78
2022/07/08 03:34:25;;;;;;;3.00;2.20;;;;;;;;;;7375681;19;20140;-78
2022/07/08 03:36:51;;;;;;;2.67;2.47;;;;;;;;;;7378611;19;20143;-77
2022/07/08 03:39:16;;;;;;;2.30;2.10;;;;;;;;;;7375170;19;20148;-79
2022/07/08 03:41:42;;;;;;;3.00;2.00;;;;;;;;;;7376852;19;20247;-77
2022/07/08 03:44:07;;;;;;;2.90;2.03;;;;;;;;;;7379502;19;20180;-79
2022/07/08 03:46:32;;;;;;;2.30;2.10;;;;;;;;;;7377088;19;20129;-79
2022/07/08 03:48:58;;;;;;;2.90;2.30;;;;;;;;;;7374488;19;20240;-79
2022/07/08 03:51:23;;;;;;;2.47;2.17;;;;;;;;;;7368237;19;20518;-79
2022/07/08 03:53:49;;;;;;;2.30;2.10;;;;;;;;;;7373779;19;20163;-79
2022/07/08 03:56:14;;;;;;;3.90;2.30;;;;;;;;;;7379027;19;20129;-80
2022/07/08 03:58:39;;;;;;;2.70;2.50;;;;;;;;;;7376900;19;20159;-80
2022/07/08 04:01:05;;;;;;;2.13;2.00;;;;;;;;;;7383957;19;20157;-79
2022/07/08 04:03:30;;;;;;;2.80;2.10;;;;;;;;;;7373071;19;20599;-80
2022/07/08 04:05:56;;;;;;;3.10;2.10;;;;;;;;;;7411855;19;20140;-80
2022/07/08 04:08:21;;;;;;;2.30;2.10;;;;;;;;;;7408520;19;20143;-79
2022/07/08 04:10:46;;;;;;;3.37;2.20;;;;;;;;;;7415657;19;20133;-79
2022/07/08 04:13:12;;;;;;;2.13;1.93;;;;;;;;;;7409441;19;20137;-78
2022/07/08 04:15:37;;;;;;;3.47;2.00;;;;;;;;;;7388392;19;20631;-77
2022/07/08 04:18:03;;;;;;;2.73;2.03;;;;;;;;;;7378313;19;20525;-78
2022/07/08 04:20:28;;;;;;;5.43;2.27;;;;;;;;;;7381519;19;20145;-78
2022/07/08 04:22:53;;;;;;;2.17;2.00;;;;;;;;;;7388895;19;20171;-77
2022/07/08 04:25:19;;;;;;;2.07;1.83;;;;;;;;;;7391942;19;20156;-78
2022/07/08 04:27:44;;;;;;;2.33;2.10;;;;;;;;;;7383558;19;20186;-77
2022/07/08 04:30:10;;;;;;;2.33;2.13;;;;;;;;;;7383223;19;20597;-77
2022/07/08 04:32:35;;;;;;;2.47;2.10;;;;;;;;;;7383918;19;20151;-78
2022/07/08 04:35:00;;;;;;;3.50;2.10;;;;;;;;;;7384907;19;20634;-77
2022/07/08 04:37:26;;;;;;;2.47;2.10;;;;;;;;;;7381139;19;20152;-77
2022/07/08 04:39:52;;;;;;;10.10;2.40;;;;;;;;;;7386506;19;20454;-78
2022/07/08 04:42:17;;;;;;;2.33;2.13;;;;;;;;;;7377238;19;20172;-78
2022/07/08 04:44:43;;;;;;;5.07;2.50;;;;;;;;;;7383136;19;20121;-80
2022/07/08 04:47:08;;;;;;;2.60;1.90;;;;;;;;;;7375891;19;20643;-78
2022/07/08 04:49:33;;;;;;;3.00;2.13;;;;;;;;;;7382961;19;20141;-77
2022/07/08 04:51:58;;;;;;;2.47;1.90;;;;;;;;;;7378667;19;20519;-77
2022/07/08 04:54:24;;;;;;;2.17;2.03;;;;;;;;;;7387033;19;20180;-79
2022/07/08 04:56:49;;;;;;;3.00;2.17;;;;;;;;;;7383089;19;20213;-79
2022/07/08 04:59:14;;;;;;;2.33;2.13;;;;;;;;;;7383904;19;20137;-78
2022/07/08 05:01:40;;;;;;;2.57;2.10;;;;;;;;;;7377192;19;20342;-79
2022/07/08 05:04:05;;;;;;;3.57;2.20;;;;;;;;;;7382822;19;20156;-79
2022/07/08 05:06:31;;;;;;;2.90;2.03;;;;;;;;;;7383750;19;20165;-78
2022/07/08 05:08:56;;;;;;;2.10;1.90;;;;;;;;;;7380088;19;20626;-80
2022/07/08 05:11:21;;;;;;;2.23;2.03;;;;;;;;;;7377942;19;20665;-78
2022/07/08 05:13:47;;;;;;;4.87;1.93;;;;;;;;;;7380954;19;20141;-78
2022/07/08 05:16:12;;;;;;;2.60;1.83;;;;;;;;;;7375091;19;20590;-78
2022/07/08 05:18:39;;;;;;;1.90;1.70;;;;;;;;;;7382645;19;20137;-78
2022/07/08 05:21:05;;;;;;;2.33;2.00;;;;;;;;;;7379878;19;20173;-81
2022/07/08 05:23:30;;;;;;;2.07;1.77;;;;;;;;;;7377969;19;20137;-78
2022/07/08 05:25:55;;;;;;;4.80;2.23;;;;;;;;;;7386887;19;20586;-78
2022/07/08 05:28:21;;;;;;;2.97;2.00;;;;;;;;;;7386301;19;20141;-78
2022/07/08 05:30:46;;;;;;;1.80;1.70;;;;;;;;;;7387741;19;20635;-78
2022/07/08 05:33:11;;;;;;;2.53;2.07;;;;;;;;;;7387946;19;20176;-78
2022/07/08 05:38:13;;;;;;;3.20;2.20;;;;;;;;;;7394662;19;20132;-78
2022/07/08 17:38:36;;;;;;;4.68;1.80;;;;;;;;;;7399499;19;20700;-80
2022/07/08 17:41:02;;;;;;;4.15;1.70;;;;;;;;;;7397872;19;20396;-80
2022/07/08 17:43:27;;;;;;;5.50;1.83;;;;;;;;;;7402765;19;20128;-80
2022/07/08 17:45:52;;;;;;;3.53;1.42;;;;;;;;;;7402778;19;20140;-80
2022/07/08 17:48:18;;;;;;;3.05;1.70;;;;;;;;;;7401745;19;20579;-80
2022/07/08 17:50:43;;;;;;;4.40;2.63;;;;;;;;;;7399809;19;20156;-80
2022/07/08 17:53:09;;;;;;;3.13;2.80;;;;;;;;;;7396903;19;20582;-81
2022/07/08 17:55:35;;;;;;;7.00;3.03;;;;;;;;;;7400801;19;20173;-80
2022/07/08 17:58:00;;;;;;;6.20;2.65;;;;;;;;;;7399472;19;20157;-80
2022/07/08 18:00:25;;;;;;;3.10;1.95;;;;;;;;;;7398937;19;20145;-80
2022/07/08 18:02:51;;;;;;;3.03;1.80;;;;;;;;;;7398470;19;20478;-79
2022/07/08 18:05:16;;;;;;;6.40;1.92;;;;;;;;;;7401163;19;20464;-80
2022/07/08 18:07:42;;;;;;;2.42;1.50;;;;;;;;;;7400735;19;20640;-79
2022/07/08 18:10:08;;;;;;;5.57;4.57;;;;;;;;;;7398742;19;20141;-80
2022/07/08 18:12:33;;;;;;;4.60;3.42;;;;;;;;;;7398951;19;20433;-81
2022/07/08 18:14:59;;;;;;;5.82;5.30;;;;;;;;;;7399193;19;20180;-81
2022/07/08 18:17:24;;;;;;;4.57;3.45;;;;;;;;;;7400090;19;20153;-79
2022/07/08 18:19:49;;;;;;;6.28;4.75;;;;;;;;;;7400533;19;20188;-80
2022/07/08 18:22:15;;;;;;;10.23;9.20;;;;;;;;;;7397149;19;20145;-80
2022/07/08 18:24:40;;;;;;;11.15;5.55;;;;;;;;;;7401197;19;20163;-79
2022/07/08 18:27:05;;;;;;;9.55;8.55;;;;;;;;;;7401637;19;20152;-81
2022/07/08 18:29:31;;;;;;;8.57;6.70;;;;;;;;;;7400599;19;20144;-80
2022/07/08 18:31:56;;;;;;;10.38;7.63;;;;;;;;;;7397705;19;20656;-80
2022/07/08 18:34:22;;;;;;;6.07;5.47;;;;;;;;;;7402534;19;20133;-80
2022/07/08 18:36:47;;;;;;;9.85;6.82;;;;;;;;;;7400738;19;20237;-80
2022/07/08 18:39:14;;;;;;;8.45;6.45;;;;;;;;;;7414055;19;20145;-80
2022/07/08 18:41:39;;;;;;;12.00;8.98;;;;;;;;;;7422609;19;20169;-80
2022/07/08 18:44:04;;;;;;;7.57;6.05;;;;;;;;;;7413947;19;20743;-79
2022/07/08 18:46:30;;;;;;;15.82;14.20;;;;;;;;;;7399142;19;20155;-79
2022/07/08 18:48:56;;;;;;;3.97;3.25;;;;;;;;;;7399561;19;20140;-79
2022/07/08 18:51:21;;;;;;;5.45;3.10;;;;;;;;;;7397674;19;20200;-79
2022/07/08 18:53:47;;;;;;;5.95;3.50;;;;;;;;;;7399464;19;20444;-79
2022/07/08 18:56:12;;;;;;;5.05;3.53;;;;;;;;;;7395717;19;20133;-79
2022/07/08 18:58:40;;;;;;;5.43;3.35;;;;;;;;;;7394491;19;20132;-80
2022/07/08 19:01:05;;;;;;;5.60;3.60;;;;;;;;;;7393435;19;20278;-79
2022/07/08 19:03:30;;;;;;;7.28;5.13;;;;;;;;;;7395639;19;20173;-79
2022/07/08 19:05:57;;;;;;;9.70;5.93;;;;;;;;;;7392119;19;20157;-79
2022/07/08 19:08:23;;;;;;;12.20;7.03;;;;;;;;;;7392143;19;20124;-79
2022/07/08 19:10:51;;;;;;;11.30;7.00;;;;;;;;;;7392809;19;20177;-79
2022/07/08 19:13:16;;;;;;;15.38;8.02;;;;;;;;;;7391870;19;20534;-79
2022/07/08 19:15:41;;;;;;;7.65;4.43;;;;;;;;;;7392777;19;20121;-79
2022/07/08 19:18:07;;;;;;;7.32;3.75;;;;;;;;;;7392179;19;20158;-80
2022/07/08 19:20:32;;;;;;;6.63;4.00;;;;;;;;;;7391282;19;20195;-80
2022/07/08 19:22:58;;;;;;;9.80;5.47;;;;;;;;;;7393882;19;20116;-80
2022/07/08 19:25:24;;;;;;;10.80;5.60;;;;;;;;;;7391809;19;20144;-80
2022/07/08 19:27:49;;;;;;;9.25;5.22;;;;;;;;;;7391241;19;20144;-80
2022/07/08 19:30:15;;;;;;;8.80;5.03;;;;;;;;;;7390144;19;20544;-79
2022/07/08 19:32:40;;;;;;;7.63;4.88;;;;;;;;;;7391437;19;20189;-78
2022/07/08 19:35:06;;;;;;;6.65;4.82;;;;;;;;;;7387420;19;20166;-78
2022/07/08 19:37:32;;;;;;;10.45;3.72;;;;;;;;;;7389011;19;20176;-78
2022/07/08 19:39:57;;;;;;;5.00;3.28;;;;;;;;;;7387658;19;20136;-79
2022/07/08 19:42:22;;;;;;;7.53;4.25;;;;;;;;;;7388139;19;20168;-79
2022/07/08 19:44:49;;;;;;;4.40;3.30;;;;;;;;;;7393647;19;20144;-79
2022/07/08 19:47:15;;;;;;;6.43;4.15;;;;;;;;;;7393399;19;20161;-79
2022/07/08 19:49:40;;;;;;;7.93;3.80;;;;;;;;;;7391272;19;20148;-80
2022/07/08 19:52:06;;;;;;;6.93;3.83;;;;;;;;;;7390772;19;20180;-79
2022/07/08 19:54:31;;;;;;;6.82;4.30;;;;;;;;;;7389938;19;20133;-79
2022/07/08 19:56:57;;;;;;;8.32;3.47;;;;;;;;;;7390815;19;20168;-79
2022/07/08 19:59:22;;;;;;;5.28;3.20;;;;;;;;;;7392003;19;20137;-78
2022/07/08 20:01:47;;;;;;;4.07;2.75;;;;;;;;;;7389275;19;20149;-80
2022/07/08 20:04:13;;;;;;;5.10;2.42;;;;;;;;;;7411228;19;20160;-81
2022/07/08 20:06:38;;;;;;;5.30;2.28;;;;;;;;;;7422938;19;20136;-79
2022/07/08 20:09:03;;;;;;;3.20;1.80;;;;;;;;;;7422156;19;20172;-80
2022/07/08 20:11:29;;;;;;;3.70;2.20;;;;;;;;;;7422020;19;20149;-79
2022/07/08 20:13:54;;;;;;;4.13;1.92;;;;;;;;;;7408250;19;20505;-79
2022/07/08 20:16:22;;;;;;;2.67;2.00;;;;;;;;;;7397800;19;20156;-80
2022/07/08 20:18:47;;;;;;;2.22;2.00;;;;;;;;;;7394866;19;20149;-79
2022/07/08 20:21:13;;;;;;;2.30;1.90;;;;;;;;;;7392445;19;20180;-80
2022/07/08 20:23:38;;;;;;;4.55;2.30;;;;;;;;;;7395803;19;20185;-78
2022/07/08 20:26:04;;;;;;;3.42;1.88;;;;;;;;;;7389346;19;20184;-78
2022/07/08 20:28:29;;;;;;;2.90;2.10;;;;;;;;;;7396052;19;20140;-79
2022/07/08 20:30:54;;;;;;;4.03;2.00;;;;;;;;;;7391166;19;20157;-79
2022/07/08 20:33:21;;;;;;;2.47;1.65;;;;;;;;;;7385933;19;20125;-79
2022/07/08 20:35:46;;;;;;;2.88;2.00;;;;;;;;;;7392401;19;20160;-80
2022/07/08 20:38:11;;;;;;;2.23;1.90;;;;;;;;;;7392339;19;20153;-79
2022/07/08 20:40:37;;;;;;;3.37;2.10;;;;;;;;;;7392874;19;20864;-78
2022/07/08 20:43:02;;;;;;;4.38;2.00;;;;;;;;;;7395735;19;20212;-78
2022/07/08 20:45:28;;;;;;;3.85;2.22;;;;;;;;;;7395819;19;20133;-78
2022/07/08 20:47:53;;;;;;;2.00;1.80;;;;;;;;;;7388991;19;20148;-78
2022/07/08 20:50:19;;;;;;;5.10;2.47;;;;;;;;;;7390054;19;20133;-78
2022/07/08 20:52:45;;;;;;;2.60;2.03;;;;;;;;;;7388147;19;20140;-80
2022/07/08 20:55:12;;;;;;;2.00;1.80;;;;;;;;;;7390023;19;20159;-78
2022/07/08 20:57:42;;;;;;;2.87;2.27;;;;;;;;;;7386195;19;20175;-79
2022/07/08 21:00:08;;;;;;;4.10;2.57;;;;;;;;;;7386750;19;20137;-78
2022/07/08 21:02:35;;;;;;;2.63;2.30;;;;;;;;;;7388715;19;20144;-79
2022/07/08 21:05:01;;;;;;;4.70;2.63;;;;;;;;;;7391598;19;20502;-80
2022/07/08 21:07:26;;;;;;;2.73;2.30;;;;;;;;;;7395597;19;20163;-79
2022/07/08 21:09:53;;;;;;;3.50;2.30;;;;;;;;;;7393154;19;20138;-78
2022/07/08 21:12:18;;;;;;;3.80;2.20;;;;;;;;;;7390801;19;20631;-79
2022/07/08 21:14:44;;;;;;;3.23;2.50;;;;;;;;;;7396759;19;20152;-80
2022/07/08 21:17:09;;;;;;;5.30;1.80;;;;;;;;;;7397745;19;20129;-79
2022/07/08 21:19:34;;;;;;;2.87;2.13;;;;;;;;;;7397031;19;20565;-80
2022/07/08 21:22:00;;;;;;;5.10;2.60;;;;;;;;;;7393691;19;20173;-79
2022/07/08 21:24:25;;;;;;;7.23;2.47;;;;;;;;;;7397515;19;20132;-79
2022/07/08 21:26:54;;;;;;;4.10;2.67;;;;;;;;;;7395870;19;20145;-78
2022/07/08 21:29:19;;;;;;;2.37;2.10;;;;;;;;;;7399323;19;20145;-79
2022/07/08 21:31:46;;;;;;;3.60;1.93;;;;;;;;;;7391942;19;20188;-79
2022/07/08 21:34:12;;;;;;;2.90;2.40;;;;;;;;;;7396445;19;20153;-79
2022/07/08 21:36:37;;;;;;;3.20;2.00;;;;;;;;;;7396810;19;20158;-80
2022/07/08 21:39:03;;;;;;;4.10;2.20;;;;;;;;;;7404203;19;20159;-79
2022/07/08 21:41:28;;;;;;;2.93;2.20;;;;;;;;;;7418386;19;20176;-80
2022/07/08 21:43:54;;;;;;;3.90;2.60;;;;;;;;;;7425750;19;20124;-80
2022/07/08 21:46:19;;;;;;;4.27;2.60;;;;;;;;;;7424062;19;20152;-79
2022/07/08 21:48:45;;;;;;;3.77;3.23;;;;;;;;;;7408356;19;20163;-79
2022/07/08 21:51:11;;;;;;;4.73;3.00;;;;;;;;;;7401219;19;20160;-77
2022/07/08 21:53:37;;;;;;;4.67;3.67;;;;;;;;;;7391415;19;20492;-77
2022/07/08 21:56:04;;;;;;;5.17;3.20;;;;;;;;;;7401586;19;20425;-78
2022/07/08 21:58:29;;;;;;;5.50;3.13;;;;;;;;;;7401341;19;20141;-78
2022/07/08 22:00:55;;;;;;;4.87;2.97;;;;;;;;;;7402195;19;20172;-79
2022/07/08 22:03:20;;;;;;;3.10;2.70;;;;;;;;;;7423024;19;20121;-80
2022/07/08 22:05:45;;;;;;;5.50;3.10;;;;;;;;;;7401067;19;20494;-78
2022/07/08 22:08:12;;;;;;;4.23;2.83;;;;;;;;;;7396946;19;20142;-78
2022/07/08 22:10:37;;;;;;;6.10;3.20;;;;;;;;;;7394459;19;20417;-78
2022/07/08 22:13:03;;;;;;;5.23;3.10;;;;;;;;;;7392246;19;20137;-78
2022/07/08 22:15:28;;;;;;;6.37;3.33;;;;;;;;;;7393082;19;20136;-78
2022/07/08 22:18:00;;;;;;;3.97;3.30;;;;;;;;;;7391778;19;20153;-79
2022/07/08 22:20:26;;;;;;;5.77;3.20;;;;;;;;;;7392897;19;20503;-79
2022/07/08 22:22:51;;;;;;;5.47;2.80;;;;;;;;;;7395807;19;20157;-78
2022/07/08 22:25:17;;;;;;;4.37;3.17;;;;;;;;;;7392479;19;20220;-78
2022/07/08 22:27:42;;;;;;;4.97;2.70;;;;;;;;;;7393747;19;20129;-77
2022/07/08 22:30:07;;;;;;;6.47;2.90;;;;;;;;;;7392634;19;20500;-79
2022/07/08 22:32:33;;;;;;;7.40;3.30;;;;;;;;;;7394701;19;20156;-79
2022/07/08 22:34:58;;;;;;;6.50;2.93;;;;;;;;;;7392058;19;20118;-80
2022/07/08 22:37:24;;;;;;;4.43;2.70;;;;;;;;;;7391051;19;20157;-79
2022/07/08 22:39:50;;;;;;;6.63;3.50;;;;;;;;;;7394460;19;20464;-79
2022/07/08 22:42:17;;;;;;;6.87;4.20;;;;;;;;;;7393662;19;20177;-79
2022/07/08 22:44:42;;;;;;;6.27;3.70;;;;;;;;;;7391903;19;20152;-79
2022/07/08 22:47:07;;;;;;;4.07;3.10;;;;;;;;;;7390227;19;20511;-79
2022/07/08 22:49:33;;;;;;;4.40;3.00;;;;;;;;;;7391491;19;20129;-80
2022/07/08 22:51:58;;;;;;;4.67;2.93;;;;;;;;;;7391952;19;20386;-79
2022/07/08 22:54:23;;;;;;;3.17;2.60;;;;;;;;;;7395059;19;20197;-79
2022/07/08 22:56:49;;;;;;;5.10;2.97;;;;;;;;;;7396465;19;20164;-79
2022/07/08 22:59:15;;;;;;;3.53;2.67;;;;;;;;;;7393420;19;20152;-79
2022/07/08 23:01:40;;;;;;;3.40;2.70;;;;;;;;;;7393010;19;20175;-79
2022/07/08 23:04:05;;;;;;;3.57;2.80;;;;;;;;;;7395255;19;20153;-80
2022/07/08 23:06:31;;;;;;;5.77;2.70;;;;;;;;;;7395468;19;20228;-79
2022/07/08 23:08:56;;;;;;;3.47;2.90;;;;;;;;;;7393464;19;20129;-80
2022/07/08 23:11:22;;;;;;;3.87;3.00;;;;;;;;;;7389033;19;20145;-81
2022/07/08 23:13:47;;;;;;;4.33;2.80;;;;;;;;;;7387928;19;20619;-79
2022/07/08 23:16:13;;;;;;;5.77;2.47;;;;;;;;;;7392456;19;20133;-82
2022/07/08 23:18:38;;;;;;;4.47;2.60;;;;;;;;;;7389311;19;20622;-82
2022/07/08 23:21:03;;;;;;;3.47;2.53;;;;;;;;;;7388286;19;20149;-79
2022/07/08 23:23:29;;;;;;;4.40;2.60;;;;;;;;;;7391411;19;20471;-79
2022/07/08 23:25:54;;;;;;;2.70;2.43;;;;;;;;;;7390860;19;20176;-79
2022/07/08 23:28:19;;;;;;;4.30;2.87;;;;;;;;;;7394957;19;20170;-80
2022/07/08 23:30:44;;;;;;;5.30;2.40;;;;;;;;;;7396088;19;20171;-79
2022/07/08 23:33:10;;;;;;;4.33;2.67;;;;;;;;;;7394853;19;20157;-79
2022/07/08 23:35:36;;;;;;;6.37;2.87;;;;;;;;;;7396119;19;20595;-79
2022/07/08 23:38:02;;;;;;;3.47;2.40;;;;;;;;;;7397155;19;20125;-79
2022/07/08 23:40:27;;;;;;;6.20;2.53;;;;;;;;;;7396130;19;20145;-81
2022/07/08 23:42:54;;;;;;;3.47;2.50;;;;;;;;;;7398910;19;20849;-79
2022/07/08 23:45:24;;;;;;;7.67;2.70;;;;;;;;;;7403702;19;20144;-80
2022/07/08 23:47:49;;;;;;;5.80;2.60;;;;;;;;;;7401932;19;20156;-80
2022/07/08 23:50:15;;;;;;;3.63;2.37;;;;;;;;;;7398019;19;20534;-79
2022/07/08 23:52:40;;;;;;;6.07;2.50;;;;;;;;;;7397239;19;20209;-79
2022/07/08 23:55:05;;;;;;;3.80;3.00;;;;;;;;;;7399660;19;20179;-80
2022/07/08 23:57:31;;;;;;;4.67;2.87;;;;;;;;;;7399910;19;20156;-79
2022/07/08 23:59:56;;;;;;;5.13;2.47;;;;;;;;;;7393673;19;20169;-79
